Paganella

LIVP · Trentino-Alto Adige, 意大利

罗盘
风向 的 Paganella 3/21
风: 0 kt, 0 beaufort


改变
0 ft 1.000 2.000 3.000 4.000 5.000
Cloud Cloud Cloud Cloud Cloud Cloud
BKN 4.000
METAR LIVP 281255Z 00000KT 9999 BKN040 00/M01 Q1017 RMK BKN SCT060 MON LIB VAL MAR CLD VIS MIN 9999

METAR Paganella - LIVP

Paganella是,意大利中的未知。 该机场位于纬度46,15000和经度11,03333。 该机场有一条跑道: 3/21. 本场的ICAO机场代码为LIVP。 机场在Milano FIR中。

该航空气象观测是针对Paganella在2024年2月28日 13:55, 当地时间进行的。

机场观察

可变方向的风很小或没有风。

可见度为10 km 或者更多。

有碎云在4.000 ft的高度。 破损或更高的上限为4.000 ft。

温度和风寒是0 °C。 露点为-1 °C,相对湿度为93%。 海平面上的气压为1017 hPa (QNH)。

白天

今天,太阳从06:57升起,在17:59降落。 这适用于Paganella,世界夏令时可能有所不同。 当地时间与世界标准时间之间的时差为+1 小时。 当前,没有夏令时有效。

公司介绍

我们没有关于这个机场的公司信息。

体会

到Vliegles.nl去找飞行课程,跳伞和其他飞行体验。 浏览页面,了解Paganella附近所有可用的活动。 你也可以使用搜索功能来寻找你所在地附近的特定飞行课程、跳伞或其他飞行体验。

跑道

Id 标题 侧风 逆风 侧风 %
3/21 030°-210°

逆风成分最大的方向会被突出显示,并用于横风计算。 这并不一定意味着这个方向在使用。

乌云

4.000 ft BKN 碎云

温度 & 天气

温度 0 °C
露点 -1 °C
相对湿度 93%
Kp-index 0 (0-9)

评论

BKN SCT060 MON LIB VAL MAR CLD VIS MIN 9999

白天

日出
06:57
中午
12:28
日落
17:59 (3:04)

小工具

你想在你的网站上有一个关于Paganella的当前航空天气(METAR)的小部件吗?

显示HTML代码
?>